Time;durP1;ratioP1;P1;durP2;ratioP2;P2;SDS_P1;SDS_P2;PMS_P1;PMS_P2;Temp;Humidity;BMP_temperature;BMP_pressure;BME280_temperature;BME280_humidity;BME280_pressure;Samples;Min_cycle;Max_cycle;Signal;HPM_P1;HPM_P2
2024/04/20 00:00:12;;;;;;;21.65;13.38;;;128.40;2252.80;;;;;;5449486;26;20013;-75
2024/04/20 00:02:38;;;;;;;15.20;10.50;;;128.30;2252.80;;;;;;5448827;26;20002;-77
2024/04/20 00:05:04;;;;;;;15.50;11.00;;;128.30;2252.80;;;;;;5449150;26;19999;-77
2024/04/20 00:07:30;;;;;;;15.93;9.10;;;128.30;2252.80;;;;;;5448321;26;20022;-71
2024/04/20 00:09:57;;;;;;;14.82;9.32;;;128.30;2252.80;;;;;;5449712;26;20002;-69
2024/04/20 00:12:23;;;;;;;14.23;10.02;;;128.30;2252.80;;;;;;5447750;26;20043;-76
2024/04/20 00:14:52;;;;;;;15.57;9.15;;;128.30;2252.80;;;;;;5448640;26;20006;-71
2024/04/20 00:17:18;;;;;;;14.18;8.75;;;128.90;2252.80;;;;;;5448258;26;20030;-75
2024/04/20 00:19:44;;;;;;;16.88;9.88;;;128.30;2252.80;;;;;;5448984;26;19999;-74
2024/04/20 00:22:11;;;;;;;14.65;8.98;;;128.20;2252.80;;;;;;5448204;26;20293;-71
2024/04/20 00:24:38;;;;;;;15.02;10.02;;;128.30;2252.80;;;;;;5449206;26;19999;-72
2024/04/20 00:27:05;;;;;;;11.07;7.55;;;128.20;2252.80;;;;;;5448063;26;20014;-76
2024/04/20 00:29:31;;;;;;;13.95;8.90;;;128.10;2252.80;;;;;;5448565;26;20092;-73
2024/04/20 00:31:57;;;;;;;12.77;7.72;;;128.00;2252.80;;;;;;5449262;26;20006;-70
2024/04/20 00:34:23;;;;;;;15.93;10.50;;;128.10;2252.80;;;;;;5448322;26;20014;-76
2024/04/20 00:36:52;;;;;;;11.57;6.72;;;128.20;2252.80;;;;;;5449360;26;20325;-71
2024/04/20 00:39:21;;;;;;;11.93;7.32;;;128.10;2252.80;;;;;;5448602;26;20028;-71
2024/04/20 00:41:48;;;;;;;11.13;7.88;;;103.30;2227.20;;;;;;5448818;26;19999;-78
2024/04/20 00:44:13;;;;;;;10.15;6.63;;;103.30;2227.20;;;;;;5448219;26;20513;-76
2024/04/20 00:46:40;;;;;;;12.30;7.53;;;128.00;2252.80;;;;;;5448909;26;20014;-77
2024/04/20 00:49:07;;;;;;;10.43;6.93;;;103.30;2227.20;;;;;;5448768;26;20010;-76
2024/04/20 00:51:33;;;;;;;13.95;7.97;;;103.20;2227.20;;;;;;5448528;26;20740;-71
2024/04/20 00:53:59;;;;;;;12.35;8.48;;;103.20;2227.20;;;;;;5448745;26;20009;-73
2024/04/20 00:56:26;;;;;;;13.15;8.48;;;103.20;2227.20;;;;;;5448697;26;20006;-71
2024/04/20 00:58:52;;;;;;;14.75;7.93;;;103.20;2227.20;;;;;;5447527;26;19995;-71
2024/04/20 01:01:18;;;;;;;11.18;8.07;;;103.00;2227.20;;;;;;5447818;26;20039;-77
2024/04/20 01:03:44;;;;;;;13.60;8.25;;;103.00;2227.20;;;;;;5447437;26;20003;-76
2024/04/20 01:06:11;;;;;;;10.68;7.40;;;103.00;2227.20;;;;;;5448949;26;20002;-73
2024/04/20 01:08:37;;;;;;;15.93;10.68;;;103.00;2227.20;;;;;;5447949;26;20003;-73
2024/04/20 01:11:03;;;;;;;12.93;9.20;;;103.10;2227.20;;;;;;5447710;26;20323;-77
2024/04/20 01:13:29;;;;;;;13.80;9.02;;;103.00;2227.20;;;;;;5447348;26;20009;-71
2024/04/20 01:15:55;;;;;;;14.40;9.63;;;103.10;2227.20;;;;;;5448467;26;20002;-77
2024/04/20 01:18:21;;;;;;;15.88;9.98;;;103.10;2227.20;;;;;;5447563;26;20013;-73
2024/04/20 01:20:48;;;;;;;13.82;8.57;;;103.10;2227.20;;;;;;5448841;26;20052;-75
2024/04/20 01:23:14;;;;;;;16.08;9.07;;;103.20;2227.20;;;;;;5448533;26;20003;-75
2024/04/20 01:25:50;;;;;;;14.07;9.43;;;103.20;2227.20;;;;;;5451445;26;20010;-73
2024/04/20 01:28:17;;;;;;;18.60;10.82;;;103.20;2227.20;;;;;;5451520;26;20325;-71
2024/04/20 01:30:43;;;;;;;14.85;8.50;;;103.20;2227.20;;;;;;5451790;26;20075;-75
2024/04/20 01:33:09;;;;;;;14.52;9.65;;;103.10;2227.20;;;;;;5420660;26;20443;-70
2024/04/20 01:35:37;;;;;;;13.65;8.48;;;103.10;2227.20;;;;;;5449416;26;19994;-76
2024/04/20 01:38:03;;;;;;;26.80;13.63;;;103.10;2227.20;;;;;;5446668;26;20534;-76
2024/04/20 01:40:29;;;;;;;25.30;12.20;;;103.20;2227.20;;;;;;5448544;26;20449;-75
2024/04/20 01:43:01;;;;;;;11.95;7.03;;;103.20;2227.20;;;;;;5447274;26;20012;-77
2024/04/20 01:45:27;;;;;;;9.52;7.22;;;103.20;2227.20;;;;;;5426356;26;20049;-77
2024/04/20 01:47:53;;;;;;;12.40;8.55;;;103.20;2227.20;;;;;;5447901;26;20011;-73
2024/04/20 01:50:19;;;;;;;11.52;8.05;;;103.10;2227.20;;;;;;5448746;26;20444;-72
2024/04/20 01:52:45;;;;;;;13.50;8.52;;;103.30;2227.20;;;;;;5447673;26;20003;-77
2024/04/20 01:55:11;;;;;;;12.75;8.05;;;103.00;2227.20;;;;;;5448391;26;20010;-74
2024/04/20 01:57:36;;;;;;;14.75;8.63;;;103.10;2227.20;;;;;;5446743;26;19999;-71
2024/04/20 02:00:03;;;;;;;13.43;8.55;;;103.00;2227.20;;;;;;5448223;26;20006;-78
2024/04/20 02:02:29;;;;;;;13.20;8.60;;;103.00;2227.20;;;;;;5447792;26;19999;-77
2024/04/20 02:04:55;;;;;;;12.38;8.45;;;128.20;2252.80;;;;;;5447938;26;20468;-77
2024/04/20 02:07:21;;;;;;;11.95;9.68;;;103.00;2227.20;;;;;;5446976;26;19999;-76
2024/04/20 02:09:48;;;;;;;12.25;6.95;;;103.00;2227.20;;;;;;5448978;26;20041;-77
2024/04/20 02:12:13;;;;;;;23.27;14.95;;;102.90;2227.20;;;;;;5447190;26;19999;-77
2024/04/20 02:14:39;;;;;;;10.88;8.05;;;102.90;2227.20;;;;;;5448343;26;20039;-75
2024/04/20 02:17:05;;;;;;;13.43;10.63;;;102.80;2227.20;;;;;;5447427;26;20014;-76
2024/04/20 02:19:31;;;;;;;10.80;7.50;;;102.80;2227.20;;;;;;5447581;26;19998;-70
2024/04/20 02:21:57;;;;;;;10.13;7.68;;;102.70;2227.20;;;;;;5447399;26;19999;-76
2024/04/20 02:24:23;;;;;;;8.07;6.13;;;102.60;2227.20;;;;;;5448081;26;19999;-77
2024/04/20 02:26:49;;;;;;;8.32;6.10;;;102.70;2227.20;;;;;;5447018;26;20002;-71
2024/04/20 02:29:15;;;;;;;12.05;7.40;;;102.60;2227.20;;;;;;5448088;26;20011;-78
2024/04/20 02:31:41;;;;;;;8.25;6.60;;;102.70;2227.20;;;;;;5446869;26;20352;-71
2024/04/20 02:34:07;;;;;;;12.27;6.68;;;102.70;2227.20;;;;;;5446922;26;20003;-70
2024/04/20 02:36:34;;;;;;;10.98;8.32;;;102.70;2227.20;;;;;;5447160;26;20015;-71
2024/04/20 02:39:00;;;;;;;9.52;6.40;;;102.70;2227.20;;;;;;5451019;26;20034;-71
2024/04/20 02:41:25;;;;;;;9.65;7.38;;;102.70;2227.20;;;;;;5449939;26;20010;-77
2024/04/20 02:43:51;;;;;;;8.98;6.43;;;102.60;2227.20;;;;;;5450849;26;20003;-73
2024/04/20 02:46:18;;;;;;;11.52;7.20;;;102.60;2227.20;;;;;;5450250;26;20007;-73
2024/04/20 02:48:47;;;;;;;8.68;6.07;;;102.60;2227.20;;;;;;5450775;26;20014;-74
2024/04/20 02:51:13;;;;;;;10.20;6.95;;;102.60;2227.20;;;;;;5449847;26;20002;-78
2024/04/20 02:53:39;;;;;;;12.23;6.57;;;102.50;2227.20;;;;;;5450662;26;19999;-72
2024/04/20 02:56:05;;;;;;;12.70;7.82;;;102.50;2227.20;;;;;;5449939;26;20014;-77
2024/04/20 02:58:31;;;;;;;12.98;7.05;;;102.50;2227.20;;;;;;5450119;26;20018;-72
2024/04/20 03:00:59;;;;;;;10.18;6.90;;;102.60;2227.20;;;;;;5449981;26;20437;-78
2024/04/20 03:03:31;;;;;;;9.35;6.32;;;102.50;2227.20;;;;;;5450106;26;19999;-72
2024/04/20 03:05:57;;;;;;;14.88;7.55;;;102.40;2227.20;;;;;;5449825;26;20006;-77
2024/04/20 03:08:23;;;;;;;10.88;6.88;;;102.50;2227.20;;;;;;5449449;26;20083;-73
2024/04/20 03:10:49;;;;;;;10.20;6.68;;;102.40;2227.20;;;;;;5450398;26;20010;-74
2024/04/20 03:13:15;;;;;;;11.38;7.72;;;102.40;2227.20;;;;;;5449514;26;20091;-78
2024/04/20 03:15:42;;;;;;;13.98;7.93;;;102.40;2227.20;;;;;;5449910;26;21878;-72
2024/04/20 03:18:09;;;;;;;13.60;7.75;;;102.40;2227.20;;;;;;5449656;26;20002;-76
2024/04/20 03:20:35;;;;;;;14.95;7.65;;;77.70;2227.20;;;;;;5449573;26;20046;-76
2024/04/20 03:23:01;;;;;;;12.63;8.10;;;102.40;2227.20;;;;;;5448463;26;20050;-72
2024/04/20 03:25:27;;;;;;;10.85;7.53;;;77.70;2227.20;;;;;;5449876;26;19995;-72
2024/04/20 03:27:53;;;;;;;11.93;7.95;;;77.60;2227.20;;;;;;5448073;26;19998;-78
2024/04/20 03:30:18;;;;;;;11.85;8.20;;;77.60;2227.20;;;;;;5449091;26;20009;-73
2024/04/20 03:32:44;;;;;;;10.05;7.32;;;77.70;2227.20;;;;;;5448640;26;20007;-71
2024/04/20 03:35:10;;;;;;;14.13;7.80;;;102.40;2227.20;;;;;;5449666;26;20021;-71
2024/04/20 03:37:36;;;;;;;13.23;7.32;;;102.40;2227.20;;;;;;5448647;26;20340;-75
2024/04/20 03:40:02;;;;;;;15.80;7.22;;;102.50;2227.20;;;;;;5448942;26;19999;-71
2024/04/20 03:42:29;;;;;;;12.63;7.65;;;102.50;2227.20;;;;;;5448134;26;20052;-70
2024/04/20 03:45:02;;;;;;;13.32;8.02;;;102.50;2227.20;;;;;;5449238;26;20085;-77
2024/04/20 03:47:28;;;;;;;12.63;8.00;;;102.60;2227.20;;;;;;5449422;26;20013;-76
2024/04/20 03:49:54;;;;;;;10.80;7.32;;;102.70;2227.20;;;;;;5449108;26;19999;-77
2024/04/20 03:52:20;;;;;;;12.00;7.43;;;102.70;2227.20;;;;;;5449220;26;20018;-77
2024/04/20 03:54:45;;;;;;;10.30;6.93;;;102.80;2227.20;;;;;;5449951;26;20433;-76
2024/04/20 03:57:11;;;;;;;12.43;8.68;;;102.80;2227.20;;;;;;5448641;26;19998;-77
2024/04/20 03:59:37;;;;;;;13.35;8.43;;;102.80;2227.20;;;;;;5448496;26;19999;-73
2024/04/20 04:02:03;;;;;;;15.77;8.43;;;102.90;2227.20;;;;;;5448439;26;19999;-78
2024/04/20 04:04:29;;;;;;;11.55;7.63;;;102.90;2227.20;;;;;;5449535;26;20444;-76
2024/04/20 04:06:55;;;;;;;11.23;8.68;;;103.00;2227.20;;;;;;5448263;26;20053;-76
2024/04/20 04:09:21;;;;;;;13.95;8.55;;;103.00;2227.20;;;;;;5449600;26;20079;-71
2024/04/20 04:11:46;;;;;;;13.02;8.60;;;103.00;2227.20;;;;;;5448667;26;20002;-78
2024/04/20 04:14:12;;;;;;;14.80;10.00;;;103.20;2227.20;;;;;;5448481;26;20597;-77
2024/04/20 04:16:38;;;;;;;11.20;9.43;;;103.30;2227.20;;;;;;5448987;26;19998;-78
2024/04/20 04:19:04;;;;;;;11.63;8.07;;;128.00;2252.80;;;;;;5448560;26;20014;-70
2024/04/20 04:21:33;;;;;;;13.65;8.70;;;128.10;2252.80;;;;;;5449023;26;19998;-77
2024/04/20 04:23:59;;;;;;;14.02;9.88;;;128.30;2252.80;;;;;;5448826;26;20079;-78
2024/04/20 04:26:25;;;;;;;15.98;9.73;;;128.20;2252.80;;;;;;5447698;26;20011;-72
2024/04/20 04:28:51;;;;;;;13.73;8.00;;;128.40;2252.80;;;;;;5448564;26;20364;-74
2024/04/20 04:31:17;;;;;;;13.18;8.20;;;128.60;2252.80;;;;;;5448696;26;20009;-71
2024/04/20 04:33:43;;;;;;;19.30;9.00;;;128.90;2252.80;;;;;;5448113;26;20010;-78
2024/04/20 04:36:09;;;;;;;15.80;10.88;;;153.80;2252.80;;;;;;5448370;26;20003;-78
2024/04/20 04:38:34;;;;;;;16.65;10.05;;;153.70;2252.80;;;;;;5448292;26;20353;-73
2024/04/20 04:41:00;;;;;;;18.02;11.15;;;154.30;2252.80;;;;;;5448756;26;19999;-72
2024/04/20 04:43:26;;;;;;;16.15;10.65;;;154.50;2252.80;;;;;;5448641;26;20035;-78
2024/04/20 04:45:52;;;;;;;13.85;9.88;;;154.50;2252.80;;;;;;5448025;26;19999;-72
2024/04/20 04:48:18;;;;;;;32.40;23.42;;;179.30;2252.80;;;;;;5448621;26;20014;-72
2024/04/20 04:50:45;;;;;;;33.45;24.35;;;179.90;2252.80;;;;;;5447701;26;20003;-74
2024/04/20 04:53:10;;;;;;;24.40;18.23;;;180.10;2252.80;;;;;;5448377;26;20010;-72
2024/04/20 04:55:36;;;;;;;23.35;14.90;;;179.90;2252.80;;;;;;5448155;26;20003;-76
2024/04/20 04:58:02;;;;;;;15.85;11.73;;;179.80;2252.80;;;;;;5447714;26;20014;-78
2024/04/20 05:00:28;;;;;;;13.52;9.15;;;179.80;2252.80;;;;;;5446717;26;20003;-74
2024/04/20 05:02:54;;;;;;;14.32;8.02;;;179.80;2252.80;;;;;;5447794;26;20006;-78
2024/04/20 05:05:20;;;;;;;11.80;8.55;;;179.80;2252.80;;;;;;5447508;26;20075;-74
2024/04/20 05:07:45;;;;;;;11.27;7.43;;;179.80;2252.80;;;;;;5447707;26;20740;-76
2024/04/20 05:10:12;;;;;;;14.65;8.85;;;180.10;2252.80;;;;;;5447174;26;19999;-71
2024/04/20 05:12:37;;;;;;;14.07;8.52;;;205.10;2252.80;;;;;;5447805;26;20007;-74
2024/04/20 05:15:04;;;;;;;15.00;10.38;;;205.40;2252.80;;;;;;5447244;26;19995;-73
2024/04/20 05:17:30;;;;;;;13.23;8.73;;;205.60;2252.80;;;;;;5447723;26;20018;-71
2024/04/20 05:19:56;;;;;;;13.93;9.40;;;205.70;2252.80;;;;;;5447190;26;19998;-77
2024/04/20 05:22:22;;;;;;;14.10;8.82;;;230.40;2252.80;;;;;;5447583;26;19998;-72
2024/04/20 05:24:48;;;;;;;12.82;9.25;;;230.50;2252.80;;;;;;5447480;26;20075;-78
2024/04/20 05:27:14;;;;;;;14.68;10.80;;;230.40;2252.80;;;;;;5447798;26;20011;-77
2024/04/20 05:29:40;;;;;;;17.13;10.00;;;230.70;2252.80;;;;;;5447182;26;20030;-76
2024/04/20 05:32:06;;;;;;;15.00;10.25;;;230.90;2252.80;;;;;;5448425;26;20013;-77
2024/04/20 05:34:32;;;;;;;45.03;29.25;;;231.10;2252.80;;;;;;5447035;26;20011;-76
2024/04/20 05:36:58;;;;;;;52.35;33.20;;;256.50;2252.80;;;;;;5447615;26;19999;-78
2024/04/20 05:39:24;;;;;;;74.20;49.03;;;282.20;2278.40;;;;;;5446225;26;20454;-73
2024/04/20 05:41:50;;;;;;;61.92;43.95;;;307.60;2304.00;;;;;;5447333;26;20012;-76
2024/04/20 05:44:17;;;;;;;48.25;31.77;;;358.80;2150.40;;;;;;5446921;26;20332;-72
2024/04/20 05:46:43;;;;;;;42.70;28.90;;;410.30;1945.60;;;;;;5446655;26;20009;-77
2024/04/20 05:49:10;;;;;;;42.22;29.83;;;461.50;1766.40;;;;;;5446090;26;19998;-76
2024/04/20 05:51:35;;;;;;;30.42;24.17;;;487.20;1638.40;;;;;;5447048;26;19995;-77
2024/04/20 05:54:01;;;;;;;28.73;25.60;;;487.30;1612.80;;;;;;5446318;26;20448;-76
2024/04/20 05:56:27;;;;;;;36.30;32.28;;;512.60;1587.20;;;;;;5446947;26;20003;-76
2024/04/20 05:58:53;;;;;;;38.15;30.35;;;538.40;1536.00;;;;;;5445776;26;20014;-77
2024/04/20 06:01:19;;;;;;;28.70;23.10;;;563.70;1510.40;;;;;;5423467;26;20021;-71
2024/04/20 06:03:45;;;;;;;29.48;25.60;;;563.80;1459.20;;;;;;5445828;26;19999;-77
2024/04/20 06:06:11;;;;;;;37.92;34.33;;;589.50;1408.00;;;;;;5446926;26;20497;-78
2024/04/20 06:08:36;;;;;;;31.90;27.27;;;614.70;1356.80;;;;;;5445766;26;20047;-76
2024/04/20 06:11:03;;;;;;;34.38;30.52;;;615.30;1331.20;;;;;;5445380;26;20437;-76
2024/04/20 06:13:29;;;;;;;32.38;26.58;;;640.60;1254.40;;;;;;5446092;26;20461;-77
2024/04/20 06:15:55;;;;;;;31.63;28.23;;;640.20;1254.40;;;;;;5446156;26;20067;-73
2024/04/20 06:18:20;;;;;;;29.48;26.48;;;640.70;1254.40;;;;;;5445545;26;20010;-72
2024/04/20 06:20:51;;;;;;;37.67;31.73;;;640.10;1280.00;;;;;;5445887;26;20461;-78
2024/04/20 06:23:17;;;;;;;40.35;33.38;;;615.10;1305.60;;;;;;5423554;26;20003;-79
2024/04/20 06:25:47;;;;;;;32.92;27.88;;;640.00;1280.00;;;;;;5445166;26;20030;-77
2024/04/20 06:28:13;;;;;;;31.80;25.63;;;640.10;1254.40;;;;;;5445820;26;20003;-76
2024/04/20 06:30:39;;;;;;;29.67;22.38;;;615.10;1280.00;;;;;;5445494;26;20049;-77
2024/04/20 06:33:05;;;;;;;23.05;19.35;;;665.80;1228.80;;;;;;5446045;26;20009;-77
2024/04/20 06:35:31;;;;;;;20.10;17.90;;;666.50;1203.20;;;;;;5445315;26;19999;-75
2024/04/20 06:37:56;;;;;;;34.80;29.23;;;691.70;1152.00;;;;;;5446121;26;20018;-72
2024/04/20 06:40:22;;;;;;;35.55;30.40;;;717.50;1152.00;;;;;;5444814;26;20003;-75
2024/04/20 06:42:48;;;;;;;31.20;28.10;;;743.10;1126.40;;;;;;5445988;26;20457;-77
2024/04/20 06:45:15;;;;;;;45.95;41.13;;;743.00;1126.40;;;;;;5411978;26;20010;-73
2024/04/20 06:47:41;;;;;;;29.35;26.20;;;768.00;1100.80;;;;;;5446024;26;20010;-74
2024/04/20 06:50:11;;;;;;;39.80;35.60;;;793.70;1100.80;;;;;;5445144;26;20014;-77
2024/04/20 06:52:38;;;;;;;35.08;31.83;;;793.80;1075.20;;;;;;5445999;26;20336;-75
2024/04/20 06:55:04;;;;;;;21.45;18.67;;;794.20;1024.00;;;;;;5444933;26;20014;-75
2024/04/20 06:57:30;;;;;;;25.02;21.55;;;793.70;1024.00;;;;;;5444486;26;20433;-78
2024/04/20 06:59:59;;;;;;;24.05;21.52;;;768.60;1024.00;;;;;;5443954;26;20002;-78
2024/04/20 07:02:26;;;;;;;24.08;20.67;;;768.50;1024.00;;;;;;5445231;26;19998;-73
2024/04/20 07:04:52;;;;;;;28.65;23.50;;;768.70;1049.60;;;;;;5443394;26;20014;-77
2024/04/20 07:07:19;;;;;;;36.15;29.35;;;793.60;1049.60;;;;;;5445730;26;19998;-76
2024/04/20 07:09:48;;;;;;;31.40;26.33;;;794.00;1049.60;;;;;;5444637;26;20436;-76
2024/04/20 07:12:15;;;;;;;30.60;21.13;;;819.50;1024.00;;;;;;5445365;26;20003;-74
2024/04/20 07:14:41;;;;;;;26.30;19.30;;;793.60;1075.20;;;;;;5444174;26;20010;-76
2024/04/20 07:17:07;;;;;;;31.13;20.27;;;768.90;1049.60;;;;;;5445164;26;19999;-75
2024/04/20 07:19:33;;;;;;;21.88;16.75;;;768.00;1075.20;;;;;;5444074;26;20003;-75
2024/04/20 07:21:59;;;;;;;44.53;38.97;;;768.40;1049.60;;;;;;5445382;26;20013;-74
2024/04/20 07:24:25;;;;;;;24.50;17.92;;;819.90;998.40;;;;;;5446411;26;20009;-75
2024/04/20 07:26:51;;;;;;;23.65;17.65;;;819.60;1024.00;;;;;;5448073;26;19999;-75
2024/04/20 07:29:18;;;;;;;27.38;20.38;;;819.60;1024.00;;;;;;5448282;26;20003;-77
2024/04/20 07:31:45;;;;;;;23.73;21.02;;;819.60;1024.00;;;;;;5448321;26;20096;-77
2024/04/20 07:34:11;;;;;;;24.98;19.50;;;844.80;998.40;;;;;;5447420;26;20038;-74
2024/04/20 07:36:37;;;;;;;25.33;19.05;;;845.20;972.80;;;;;;5449264;26;20017;-76
2024/04/20 07:39:03;;;;;;;31.20;27.88;;;819.90;972.80;;;;;;5447518;26;19998;-76
2024/04/20 07:41:29;;;;;;;29.25;26.15;;;844.90;998.40;;;;;;5448695;26;20756;-77
2024/04/20 07:43:56;;;;;;;35.60;32.30;;;819.40;998.40;;;;;;5447575;26;20003;-76
2024/04/20 07:46:22;;;;;;;32.15;23.63;;;845.50;972.80;;;;;;5448038;26;20018;-75
2024/04/20 07:48:48;;;;;;;26.52;23.20;;;896.10;921.60;;;;;;5447823;26;20634;-76
2024/04/20 07:51:15;;;;;;;25.35;19.10;;;871.10;921.60;;;;;;5448391;26;19999;-76
2024/04/20 07:53:41;;;;;;;23.17;18.20;;;896.00;921.60;;;;;;5415745;26;20058;-74
2024/04/20 07:56:06;;;;;;;33.22;23.00;;;896.80;896.00;;;;;;5448893;26;20009;-73
2024/04/20 07:58:32;;;;;;;24.23;21.55;;;921.90;921.60;;;;;;5447042;26;20015;-76
2024/04/20 08:00:58;;;;;;;24.15;20.23;;;947.60;896.00;;;;;;5447654;26;20439;-76
2024/04/20 08:03:24;;;;;;;33.10;20.48;;;948.10;870.40;;;;;;5447718;26;20015;-75
2024/04/20 08:05:50;;;;;;;21.85;14.93;;;947.80;844.80;;;;;;5448336;26;20070;-75
2024/04/20 08:08:15;;;;;;;21.30;19.15;;;947.70;844.80;;;;;;5447487;26;20479;-77
2024/04/20 08:10:41;;;;;;;19.30;14.57;;;948.10;819.20;;;;;;5447808;26;19999;-76
2024/04/20 08:13:07;;;;;;;17.92;14.75;;;973.20;819.20;;;;;;5447862;26;20002;-77
2024/04/20 08:15:33;;;;;;;65.78;59.13;;;973.60;819.20;;;;;;5447840;26;20451;-75
2024/04/20 08:17:59;;;;;;;17.52;15.73;;;973.10;819.20;;;;;;5446896;26;20007;-74
2024/04/20 08:20:24;;;;;;;23.90;17.25;;;922.30;844.80;;;;;;5448355;26;20007;-75
2024/04/20 08:22:50;;;;;;;23.30;17.33;;;947.70;819.20;;;;;;5447405;26;20340;-75
2024/04/20 08:25:16;;;;;;;17.42;14.70;;;896.20;870.40;;;;;;5448720;26;20003;-74
2024/04/20 08:27:42;;;;;;;12.32;10.82;;;896.60;870.40;;;;;;5446779;26;20337;-75
2024/04/20 08:30:08;;;;;;;26.05;23.45;;;871.30;844.80;;;;;;5448328;26;20018;-74
2024/04/20 08:32:34;;;;;;;13.38;11.13;;;871.30;844.80;;;;;;5446859;26;20014;-74
2024/04/20 08:35:00;;;;;;;18.08;16.25;;;870.70;870.40;;;;;;5447828;26;19999;-75
2024/04/20 08:37:26;;;;;;;9.68;7.38;;;820.00;870.40;;;;;;5447209;26;20009;-75
2024/04/20 08:39:51;;;;;;;5.97;5.22;;;742.50;947.20;;;;;;5447378;26;20088;-76
2024/04/20 08:42:33;;;;;;;12.07;7.50;;;691.70;947.20;;;;;;5447284;26;20002;-75
2024/04/20 08:45:02;;;;;;;5.18;4.68;;;640.50;998.40;;;;;;5448207;26;19999;-75
2024/04/20 08:47:33;;;;;;;7.60;5.97;;;589.70;1075.20;;;;;;5446795;26;19999;-75
2024/04/20 08:50:01;;;;;;;9.07;5.55;;;589.00;1100.80;;;;;;5447439;26;19999;-76
2024/04/20 08:52:27;;;;;;;6.35;5.22;;;589.00;1126.40;;;;;;5447797;26;20031;-76
2024/04/20 08:54:56;;;;;;;7.82;5.72;;;563.30;1152.00;;;;;;5446572;26;20075;-75
2024/04/20 08:57:24;;;;;;;46.63;31.83;;;538.50;1126.40;;;;;;5447369;26;20083;-75
2024/04/20 08:59:51;;;;;;;7.07;6.10;;;563.40;1152.00;;;;;;5446843;26;20010;-75
2024/04/20 09:02:26;;;;;;;8.63;7.28;;;538.10;1203.20;;;;;;5447906;26;20010;-75
2024/04/20 09:04:58;;;;;;;8.60;5.97;;;538.00;1228.80;;;;;;5446533;26;19999;-75
2024/04/20 09:07:26;;;;;;;9.50;4.97;;;512.90;1203.20;;;;;;5447036;26;20028;-75
2024/04/20 09:09:52;;;;;;;6.90;5.82;;;512.00;1228.80;;;;;;5446501;26;20012;-75
2024/04/20 09:12:18;;;;;;;16.88;12.82;;;512.80;1228.80;;;;;;5447846;26;20065;-75
2024/04/20 09:14:44;;;;;;;14.07;10.80;;;512.70;1228.80;;;;;;5446903;26;20002;-76
2024/04/20 09:17:10;;;;;;;14.65;8.32;;;512.30;1280.00;;;;;;5447674;26;20003;-75
2024/04/20 09:19:36;;;;;;;9.10;7.05;;;512.90;1254.40;;;;;;5446314;26;19999;-75
2024/04/20 09:22:09;;;;;;;14.18;9.00;;;512.40;1254.40;;;;;;5447148;26;20009;-75
2024/04/20 09:24:35;;;;;;;9.82;6.25;;;512.20;1254.40;;;;;;5446268;26;20497;-75
2024/04/20 09:27:01;;;;;;;7.07;5.32;;;487.10;1280.00;;;;;;5447008;26;19998;-75
2024/04/20 09:29:27;;;;;;;15.43;8.75;;;487.10;1280.00;;;;;;5446565;26;20450;-75
2024/04/20 09:31:53;;;;;;;11.40;8.82;;;487.10;1280.00;;;;;;5446846;26;20075;-75
2024/04/20 09:34:23;;;;;;;30.48;19.33;;;487.30;1305.60;;;;;;5446373;26;20003;-75
2024/04/20 09:36:50;;;;;;;8.77;5.20;;;487.10;1280.00;;;;;;5447270;26;20003;-76
2024/04/20 09:39:16;;;;;;;12.57;9.02;;;486.90;1254.40;;;;;;5446440;26;20006;-75
2024/04/20 09:41:47;;;;;;;43.95;31.60;;;487.10;1254.40;;;;;;5446591;26;20378;-75
2024/04/20 09:44:15;;;;;;;11.40;6.40;;;512.00;1280.00;;;;;;5445316;26;20006;-75
2024/04/20 09:46:47;;;;;;;17.42;10.63;;;486.90;1305.60;;;;;;5445838;26;20067;-75
2024/04/20 09:49:14;;;;;;;10.63;6.57;;;486.60;1305.60;;;;;;5445481;26;20003;-75
2024/04/20 09:51:57;;;;;;;6.80;5.18;;;487.10;1280.00;;;;;;5447140;26;20003;-75
2024/04/20 09:54:26;;;;;;;7.82;6.47;;;487.20;1254.40;;;;;;5446242;26;20002;-76
2024/04/20 09:56:54;;;;;;;7.20;4.07;;;487.30;1228.80;;;;;;5446011;26;20441;-75
2024/04/20 09:59:21;;;;;;;7.32;4.47;;;487.10;1203.20;;;;;;5445840;26;20343;-74
2024/04/20 10:01:51;;;;;;;4.22;3.55;;;487.00;1203.20;;;;;;5446625;26;20449;-75
2024/04/20 10:04:19;;;;;;;10.20;6.38;;;486.80;1228.80;;;;;;5446025;26;19999;-75
2024/04/20 10:06:47;;;;;;;9.27;5.95;;;486.90;1254.40;;;;;;5446540;26;20013;-75
2024/04/20 10:09:15;;;;;;;8.75;6.20;;;487.20;1280.00;;;;;;5445813;26;20328;-75
2024/04/20 10:11:42;;;;;;;8.63;5.45;;;487.00;1280.00;;;;;;5446151;26;20042;-75
2024/04/20 10:14:08;;;;;;;9.43;6.35;;;486.50;1305.60;;;;;;5444750;26;20441;-74
2024/04/20 10:16:34;;;;;;;5.97;4.18;;;461.50;1305.60;;;;;;5446210;26;20006;-75
2024/04/20 10:19:00;;;;;;;5.82;3.50;;;486.40;1228.80;;;;;;5445618;26;20014;-75
2024/04/20 10:21:26;;;;;;;6.55;3.63;;;461.40;1203.20;;;;;;5445892;26;19995;-76
2024/04/20 10:23:52;;;;;;;8.80;4.65;;;461.50;1203.20;;;;;;5445824;26;20045;-76
2024/04/20 10:26:28;;;;;;;8.30;4.38;;;486.40;1331.20;;;;;;5446012;26;20010;-75
2024/04/20 10:29:10;;;;;;;22.17;15.30;;;486.70;1382.40;;;;;;5445948;26;20005;-75
2024/04/20 10:31:37;;;;;;;6.35;4.28;;;486.80;1280.00;;;;;;5445408;26;19999;-75
2024/04/20 10:34:03;;;;;;;5.43;4.15;;;486.80;1382.40;;;;;;5445245;26;20418;-75
2024/04/20 10:36:29;;;;;;;5.70;4.50;;;486.80;1356.80;;;;;;5446010;26;19999;-75
2024/04/20 10:39:05;;;;;;;12.15;6.03;;;487.00;1382.40;;;;;;5445732;26;19995;-76
2024/04/20 10:41:38;;;;;;;5.88;4.53;;;486.70;1254.40;;;;;;5445568;26;20007;-74
2024/04/20 10:44:12;;;;;;;7.85;4.57;;;461.60;1280.00;;;;;;5446245;26;20005;-75
2024/04/20 10:46:47;;;;;;;7.95;5.45;;;461.20;1305.60;;;;;;5445742;26;20010;-76
2024/04/20 10:49:13;;;;;;;12.77;6.82;;;461.50;1254.40;;;;;;5414172;26;20010;-75
2024/04/20 10:52:00;;;;;;;13.55;4.63;;;486.40;1254.40;;;;;;5445919;26;20072;-75
2024/04/20 10:54:26;;;;;;;7.13;5.00;;;486.70;1254.40;;;;;;5435781;26;19999;-75
2024/04/20 10:56:55;;;;;;;8.05;4.75;;;461.70;1203.20;;;;;;5444971;26;20409;-76
2024/04/20 10:59:21;;;;;;;6.22;3.90;;;461.00;1228.80;;;;;;5442442;26;20014;-74
2024/04/20 11:01:47;;;;;;;6.30;4.57;;;461.20;1228.80;;;;;;5445687;26;20080;-75
2024/04/20 11:04:14;;;;;;;13.07;8.77;;;461.40;1228.80;;;;;;5432778;26;20014;-75
2024/04/20 11:06:40;;;;;;;15.73;6.20;;;461.60;1228.80;;;;;;5428588;26;20468;-75
2024/04/20 11:09:12;;;;;;;9.75;5.97;;;461.40;1254.40;;;;;;5447225;26;20010;-76
2024/04/20 11:11:39;;;;;;;11.88;7.95;;;461.60;1254.40;;;;;;5446972;26;20082;-76
2024/04/20 11:14:06;;;;;;;6.47;4.85;;;461.60;1280.00;;;;;;5442606;26;20004;-75
2024/04/20 11:16:32;;;;;;;11.68;6.40;;;461.70;1228.80;;;;;;5415400;26;20014;-76
2024/04/20 11:19:02;;;;;;;12.98;7.88;;;486.40;1228.80;;;;;;5420988;26;20014;-75
2024/04/20 11:21:28;;;;;;;9.52;4.97;;;461.40;1228.80;;;;;;5423864;26;20433;-76
2024/04/20 11:23:54;;;;;;;9.68;5.47;;;461.20;1228.80;;;;;;5418251;26;20011;-74
2024/04/20 11:26:20;;;;;;;7.15;4.38;;;461.40;1228.80;;;;;;5420845;26;20014;-75
2024/04/20 11:28:46;;;;;;;10.93;6.13;;;461.10;1254.40;;;;;;5428937;26;20401;-74
2024/04/20 11:31:13;;;;;;;34.40;19.92;;;461.10;1228.80;;;;;;5420560;26;19999;-74
2024/04/20 11:33:47;;;;;;;15.10;9.95;;;461.40;1228.80;;;;;;5429686;26;20002;-74
2024/04/20 11:36:18;;;;;;;19.98;12.35;;;461.50;1228.80;;;;;;5424408;26;20003;-74
2024/04/20 11:38:47;;;;;;;17.70;12.95;;;461.70;1254.40;;;;;;5413499;26;20014;-75
2024/04/20 11:41:24;;;;;;;17.92;12.70;;;486.50;1177.60;;;;;;5431076;26;20035;-74
2024/04/20 11:44:05;;;;;;;8.90;6.10;;;486.40;1177.60;;;;;;5435256;26;19999;-74
2024/04/20 11:46:39;;;;;;;12.40;5.10;;;486.50;1177.60;;;;;;5431658;26;19995;-75
2024/04/20 11:49:15;;;;;;;5.55;3.78;;;486.80;1254.40;;;;;;5418281;26;20030;-75
2024/04/20 11:54:25;;;;;;;14.88;6.60;;;487.20;1203.20;;;;;;5424631;26;19999;-74
2024/04/20 11:56:55;;;;;;;11.73;8.45;;;487.20;1203.20;;;;;;5438057;26;19998;-75
2024/04/20 11:59:24;;;;;;;5.10;4.22;;;487.30;1203.20;;;;;;5441680;26;19995;-74
2024/04/20 12:01:50;;;;;;;10.45;4.95;;;487.00;1177.60;;;;;;5448630;26;20021;-74
2024/04/20 12:04:16;;;;;;;6.32;4.70;;;486.80;1177.60;;;;;;5446738;26;20006;-74
2024/04/20 12:06:43;;;;;;;6.93;4.15;;;486.50;1177.60;;;;;;5447570;26;20075;-74
2024/04/20 12:09:08;;;;;;;7.43;5.80;;;486.80;1177.60;;;;;;5446781;26;20370;-74